VLG150 LEMH-LEZL
Flight info
| Callsign | VLG150 |
|---|---|
| Flight time | 1h 30m |
| Altitude | 35000 |
| Route | EPAMA N733 VLC M985 MAMIS |
| Aircraft | A320/M-SDE3FGHIRWY/LB1 |
Departure
| Time | 2026-04-29 16:07 |
|---|---|
| Airport | Menorca Airport (LEMH) |
Arrival
| Time | 2026-04-29 17:37 |
|---|---|
| Airport | Seville Airport (LEZL) |
| Time | Latitude | Longitude | Altitude | Speed | Heading |
|---|---|---|---|---|---|
| 2026-04-29 15:38 | 39.86527 | 4.22427 | 287 ft | 0 kts | 99° |
| 2026-04-29 15:47 | 39.86527 | 4.22426 | 286 ft | 0 kts | 99° |
| 2026-04-29 15:58 | 39.86529 | 4.22407 | 286 ft | 4 kts | 102° |
| 2026-04-29 15:58 | 39.86536 | 4.22373 | 292 ft | 4 kts | 111° |
| 2026-04-29 15:58 | 39.86549 | 4.22344 | 294 ft | 4 kts | 146° |
| 2026-04-29 15:59 | 39.86562 | 4.22337 | 298 ft | 1 kts | 188° |
| 2026-04-29 16:00 | 39.86556 | 4.22336 | 299 ft | 3 kts | 189° |
| 2026-04-29 16:01 | 39.86517 | 4.22327 | 288 ft | 8 kts | 189° |
| 2026-04-29 16:01 | 39.86452 | 4.22314 | 288 ft | 11 kts | 188° |
| 2026-04-29 16:01 | 39.86371 | 4.22298 | 288 ft | 11 kts | 188° |
| 2026-04-29 16:01 | 39.86299 | 4.22283 | 288 ft | 10 kts | 189° |
| 2026-04-29 16:02 | 39.86237 | 4.22270 | 288 ft | 8 kts | 189° |
| 2026-04-29 16:02 | 39.86190 | 4.22246 | 292 ft | 6 kts | 231° |
| 2026-04-29 16:02 | 39.86185 | 4.22189 | 292 ft | 7 kts | 275° |
| 2026-04-29 16:02 | 39.86191 | 4.22123 | 293 ft | 7 kts | 274° |
| 2026-04-29 16:03 | 39.86161 | 4.22083 | 294 ft | 7 kts | 193° |
| 2026-04-29 16:03 | 39.86098 | 4.22070 | 295 ft | 11 kts | 188° |
| 2026-04-29 16:03 | 39.86011 | 4.22053 | 298 ft | 14 kts | 188° |
| 2026-04-29 16:03 | 39.85905 | 4.22032 | 296 ft | 17 kts | 188° |
| 2026-04-29 16:04 | 39.85769 | 4.22004 | 297 ft | 22 kts | 190° |
| 2026-04-29 16:04 | 39.85597 | 4.21969 | 287 ft | 28 kts | 188° |
| 2026-04-29 16:04 | 39.85392 | 4.21927 | 283 ft | 31 kts | 189° |
| 2026-04-29 16:04 | 39.85216 | 4.21887 | 281 ft | 11 kts | 189° |
| 2026-04-29 16:05 | 39.85148 | 4.21864 | 283 ft | 9 kts | 215° |
| 2026-04-29 16:05 | 39.85133 | 4.21809 | 283 ft | 4 kts | 271° |
| 2026-04-29 16:05 | 39.85135 | 4.21782 | 283 ft | 4 kts | 276° |
| 2026-04-29 16:05 | 39.85143 | 4.21720 | 285 ft | 9 kts | 281° |
| 2026-04-29 16:06 | 39.85164 | 4.21658 | 289 ft | 5 kts | 321° |
| 2026-04-29 16:06 | 39.85196 | 4.21648 | 289 ft | 4 kts | 356° |
| 2026-04-29 16:06 | 39.85214 | 4.21650 | 286 ft | 0 kts | 6° |
| 2026-04-29 16:06 | 39.85288 | 4.21666 | 285 ft | 40 kts | 9° |
| 2026-04-29 16:07 | 39.85809 | 4.21772 | 298 ft | 107 kts | 8° |
| 2026-04-29 16:07 | 39.86397 | 4.21893 | 303 ft | 145 kts | 9° |
| 2026-04-29 16:07 | 39.87792 | 4.22191 | 994 ft | 150 kts | 14° |
| 2026-04-29 16:07 | 39.88821 | 4.22424 | 1577 ft | 154 kts | 14° |
| 2026-04-29 16:08 | 39.89920 | 4.22683 | 1926 ft | 168 kts | 13° |
| 2026-04-29 16:08 | 39.91137 | 4.22951 | 2209 ft | 188 kts | 12° |
| 2026-04-29 16:08 | 39.92503 | 4.23237 | 2530 ft | 209 kts | 11° |
| 2026-04-29 16:08 | 39.94006 | 4.23566 | 2850 ft | 231 kts | 13° |
| 2026-04-29 16:09 | 39.95589 | 4.24237 | 3235 ft | 248 kts | 30° |
| 2026-04-29 16:09 | 39.96951 | 4.25686 | 3778 ft | 260 kts | 55° |
| 2026-04-29 16:09 | 39.97702 | 4.27843 | 4462 ft | 266 kts | 83° |
| 2026-04-29 16:09 | 39.97520 | 4.30181 | 5216 ft | 267 kts | 114° |
| 2026-04-29 16:10 | 39.96440 | 4.32127 | 5971 ft | 269 kts | 141° |
| 2026-04-29 16:10 | 39.94808 | 4.33302 | 6753 ft | 270 kts | 165° |
| 2026-04-29 16:10 | 39.92947 | 4.33517 | 7541 ft | 271 kts | 188° |
| 2026-04-29 16:10 | 39.91148 | 4.32741 | 8167 ft | 280 kts | 212° |
| 2026-04-29 16:11 | 39.89749 | 4.30977 | 8841 ft | 285 kts | 239° |
| 2026-04-29 16:11 | 39.89065 | 4.28548 | 9677 ft | 287 kts | 256° |
| 2026-04-29 16:11 | 39.88584 | 4.26035 | 10506 ft | 286 kts | 252° |
| 2026-04-29 16:11 | 39.87767 | 4.23653 | 11138 ft | 295 kts | 238° |
| 2026-04-29 16:12 | 39.86398 | 4.21526 | 11329 ft | 319 kts | 226° |
| 2026-04-29 16:12 | 39.85360 | 4.20124 | 11575 ft | 328 kts | 227° |
| 2026-04-29 16:12 | 39.83279 | 4.17145 | 12462 ft | 335 kts | 229° |
| 2026-04-29 16:12 | 39.81738 | 4.14856 | 13192 ft | 337 kts | 230° |
| 2026-04-29 16:13 | 39.80197 | 4.12536 | 13896 ft | 340 kts | 230° |
| 2026-04-29 16:13 | 39.78648 | 4.10196 | 14515 ft | 343 kts | 230° |
| 2026-04-29 16:13 | 39.77081 | 4.07837 | 15133 ft | 346 kts | 230° |
| 2026-04-29 16:13 | 39.75496 | 4.05462 | 15720 ft | 350 kts | 230° |
| 2026-04-29 16:14 | 39.73912 | 4.03100 | 16305 ft | 353 kts | 230° |
| 2026-04-29 16:14 | 39.72290 | 4.00689 | 16900 ft | 356 kts | 229° |
| 2026-04-29 16:14 | 39.70650 | 3.98253 | 17483 ft | 360 kts | 229° |
| 2026-04-29 16:14 | 39.68994 | 3.95799 | 18067 ft | 363 kts | 229° |
| 2026-04-29 16:15 | 39.67318 | 3.93324 | 18576 ft | 366 kts | 229° |
| 2026-04-29 16:15 | 39.65624 | 3.90830 | 19076 ft | 370 kts | 229° |
| 2026-04-29 16:15 | 39.63918 | 3.88318 | 19582 ft | 373 kts | 229° |
| 2026-04-29 16:15 | 39.62195 | 3.85780 | 20091 ft | 376 kts | 229° |
| 2026-04-29 16:16 | 39.60459 | 3.83221 | 20592 ft | 379 kts | 230° |
| 2026-04-29 16:16 | 39.58713 | 3.80642 | 21101 ft | 382 kts | 230° |
| 2026-04-29 16:16 | 39.56949 | 3.78037 | 21593 ft | 385 kts | 230° |
| 2026-04-29 16:16 | 39.55172 | 3.75416 | 22088 ft | 389 kts | 230° |
| 2026-04-29 16:17 | 39.54568 | 3.74527 | 22250 ft | 390 kts | 230° |
| 2026-04-29 16:17 | 39.53764 | 3.73344 | 22458 ft | 392 kts | 230° |
| 2026-04-29 16:17 | 39.51955 | 3.70692 | 22954 ft | 394 kts | 230° |
| 2026-04-29 16:17 | 39.50132 | 3.68023 | 23432 ft | 397 kts | 230° |
| 2026-04-29 16:18 | 39.48296 | 3.65331 | 23831 ft | 400 kts | 230° |
| 2026-04-29 16:18 | 39.46448 | 3.62618 | 24232 ft | 402 kts | 230° |
| 2026-04-29 16:18 | 39.44593 | 3.59896 | 24625 ft | 404 kts | 230° |
| 2026-04-29 16:18 | 39.42726 | 3.57160 | 25011 ft | 406 kts | 230° |
| 2026-04-29 16:19 | 39.40847 | 3.54416 | 25387 ft | 408 kts | 230° |
| 2026-04-29 16:19 | 39.39598 | 3.52598 | 25635 ft | 409 kts | 230° |
| 2026-04-29 16:19 | 39.37699 | 3.49829 | 26005 ft | 411 kts | 231° |
| 2026-04-29 16:19 | 39.36063 | 3.46808 | 26356 ft | 411 kts | 243° |
| 2026-04-29 16:20 | 39.34938 | 3.43427 | 26704 ft | 411 kts | 254° |
| 2026-04-29 16:20 | 39.34363 | 3.39805 | 27042 ft | 412 kts | 265° |
| 2026-04-29 16:20 | 39.34354 | 3.36107 | 27389 ft | 413 kts | 276° |
| 2026-04-29 16:20 | 39.34843 | 3.32439 | 27718 ft | 416 kts | 281° |
| 2026-04-29 16:21 | 39.35412 | 3.28774 | 28051 ft | 417 kts | 281° |
| 2026-04-29 16:21 | 39.35983 | 3.25088 | 28377 ft | 419 kts | 281° |
| 2026-04-29 16:21 | 39.36559 | 3.21383 | 28700 ft | 421 kts | 281° |
| 2026-04-29 16:21 | 39.37136 | 3.17665 | 29017 ft | 423 kts | 281° |
| 2026-04-29 16:22 | 39.37712 | 3.13927 | 29315 ft | 425 kts | 281° |
| 2026-04-29 16:22 | 39.38290 | 3.10175 | 29622 ft | 427 kts | 281° |
| 2026-04-29 16:22 | 39.38851 | 3.06538 | 29903 ft | 428 kts | 281° |
| 2026-04-29 16:22 | 39.39435 | 3.02755 | 30154 ft | 430 kts | 281° |
| 2026-04-29 16:23 | 39.40010 | 2.99003 | 30388 ft | 431 kts | 281° |
| 2026-04-29 16:23 | 39.40591 | 2.95187 | 30625 ft | 433 kts | 281° |
| 2026-04-29 16:23 | 39.41166 | 2.91414 | 30847 ft | 434 kts | 281° |
| 2026-04-29 16:23 | 39.41748 | 2.87578 | 31083 ft | 435 kts | 281° |
| 2026-04-29 16:24 | 39.42328 | 2.83750 | 31403 ft | 433 kts | 281° |
| 2026-04-29 16:24 | 39.42913 | 2.79882 | 31732 ft | 432 kts | 281° |
| 2026-04-29 16:24 | 39.43550 | 2.76140 | 32042 ft | 431 kts | 286° |
| 2026-04-29 16:24 | 39.44577 | 2.72503 | 32352 ft | 431 kts | 291° |
| 2026-04-29 16:25 | 39.45718 | 2.68925 | 32661 ft | 430 kts | 291° |
| 2026-04-29 16:25 | 39.46850 | 2.65356 | 32972 ft | 429 kts | 291° |
| 2026-04-29 16:25 | 39.47978 | 2.61783 | 33285 ft | 428 kts | 291° |
| 2026-04-29 16:25 | 39.49097 | 2.58224 | 33595 ft | 426 kts | 291° |
| 2026-04-29 16:26 | 39.50215 | 2.54674 | 33895 ft | 425 kts | 291° |
| 2026-04-29 16:26 | 39.51334 | 2.51131 | 34170 ft | 424 kts | 291° |
| 2026-04-29 16:26 | 39.52450 | 2.47590 | 34431 ft | 424 kts | 291° |
| 2026-04-29 16:26 | 39.53561 | 2.44063 | 34673 ft | 423 kts | 291° |
| 2026-04-29 16:27 | 39.54539 | 2.40476 | 34865 ft | 422 kts | 284° |
| 2026-04-29 16:27 | 39.55322 | 2.33028 | 34924 ft | 415 kts | 274° |
| 2026-04-29 16:28 | 39.55741 | 2.25582 | 34925 ft | 414 kts | 274° |
| 2026-04-29 16:28 | 39.56156 | 2.18149 | 34928 ft | 413 kts | 274° |
| 2026-04-29 16:29 | 39.56575 | 2.10724 | 34928 ft | 413 kts | 274° |
| 2026-04-29 16:29 | 39.56978 | 2.03300 | 34929 ft | 413 kts | 274° |
| 2026-04-29 16:30 | 39.57372 | 1.95883 | 34924 ft | 412 kts | 274° |
| 2026-04-29 16:30 | 39.57754 | 1.88515 | 34924 ft | 412 kts | 274° |
| 2026-04-29 16:31 | 39.58135 | 1.81308 | 34921 ft | 412 kts | 274° |
| 2026-04-29 16:31 | 39.58524 | 1.73908 | 34932 ft | 412 kts | 274° |
| 2026-04-29 16:32 | 39.58905 | 1.66494 | 34932 ft | 411 kts | 274° |
| 2026-04-29 16:32 | 39.59273 | 1.59089 | 34928 ft | 411 kts | 274° |
| 2026-04-29 16:33 | 39.59169 | 1.48033 | 34936 ft | 411 kts | 257° |
| 2026-04-29 16:33 | 39.57794 | 1.40831 | 34923 ft | 411 kts | 257° |
| 2026-04-29 16:34 | 39.56404 | 1.33686 | 34926 ft | 411 kts | 257° |
| 2026-04-29 16:34 | 39.54988 | 1.26455 | 34920 ft | 411 kts | 257° |
| 2026-04-29 16:35 | 39.53586 | 1.19318 | 34921 ft | 411 kts | 257° |
| 2026-04-29 16:35 | 39.52172 | 1.12142 | 34930 ft | 411 kts | 257° |
| 2026-04-29 16:36 | 39.50763 | 1.04968 | 34922 ft | 411 kts | 257° |
| 2026-04-29 16:36 | 39.49343 | 0.97804 | 34917 ft | 411 kts | 257° |
| 2026-04-29 16:37 | 39.47918 | 0.90648 | 34926 ft | 411 kts | 257° |
| 2026-04-29 16:37 | 39.46724 | 0.84651 | 34928 ft | 410 kts | 257° |
| 2026-04-29 16:38 | 39.45059 | 0.76336 | 34924 ft | 410 kts | 257° |
| 2026-04-29 16:38 | 39.43625 | 0.69193 | 34921 ft | 410 kts | 257° |
| 2026-04-29 16:39 | 39.42186 | 0.62046 | 34921 ft | 410 kts | 257° |
| 2026-04-29 16:39 | 39.40748 | 0.54909 | 34919 ft | 410 kts | 257° |
| 2026-04-29 16:40 | 39.39294 | 0.47775 | 34917 ft | 410 kts | 257° |
| 2026-04-29 16:40 | 39.37844 | 0.40645 | 34915 ft | 410 kts | 257° |
| 2026-04-29 16:41 | 39.36390 | 0.33513 | 34916 ft | 410 kts | 256° |
| 2026-04-29 16:41 | 39.34929 | 0.26391 | 34916 ft | 410 kts | 256° |
| 2026-04-29 16:42 | 39.33475 | 0.19319 | 34912 ft | 410 kts | 256° |
| 2026-04-29 16:42 | 39.32004 | 0.12199 | 34916 ft | 410 kts | 256° |
| 2026-04-29 16:43 | 39.30531 | 0.05087 | 34913 ft | 410 kts | 256° |
| 2026-04-29 16:43 | 39.29056 | -0.02025 | 34913 ft | 410 kts | 256° |
| 2026-04-29 16:44 | 39.27577 | -0.09137 | 34914 ft | 410 kts | 256° |
| 2026-04-29 16:44 | 39.26091 | -0.16240 | 34917 ft | 410 kts | 256° |
| 2026-04-29 16:45 | 39.24639 | -0.23158 | 34916 ft | 410 kts | 256° |
| 2026-04-29 16:45 | 39.22662 | -0.30068 | 34915 ft | 412 kts | 248° |
| 2026-04-29 16:46 | 39.20382 | -0.36845 | 34912 ft | 412 kts | 248° |
| 2026-04-29 16:46 | 39.18083 | -0.43616 | 34914 ft | 412 kts | 248° |
| 2026-04-29 16:47 | 39.15783 | -0.50386 | 34915 ft | 413 kts | 248° |
| 2026-04-29 16:47 | 39.13497 | -0.57119 | 34913 ft | 413 kts | 248° |
| 2026-04-29 16:48 | 39.11197 | -0.63889 | 34920 ft | 413 kts | 248° |
| 2026-04-29 16:48 | 39.08890 | -0.70661 | 34917 ft | 413 kts | 248° |
| 2026-04-29 16:49 | 39.06574 | -0.77424 | 34913 ft | 413 kts | 248° |
| 2026-04-29 16:49 | 39.04250 | -0.84188 | 34918 ft | 413 kts | 247° |
| 2026-04-29 16:50 | 39.01928 | -0.90948 | 34922 ft | 413 kts | 248° |
| 2026-04-29 16:50 | 38.99601 | -0.97706 | 34921 ft | 413 kts | 247° |
| 2026-04-29 16:51 | 38.97263 | -1.04460 | 34918 ft | 413 kts | 247° |
| 2026-04-29 16:51 | 38.94923 | -1.11218 | 34915 ft | 413 kts | 247° |
| 2026-04-29 16:52 | 38.92586 | -1.17967 | 34913 ft | 413 kts | 247° |
| 2026-04-29 16:52 | 38.90244 | -1.24714 | 34906 ft | 414 kts | 247° |
| 2026-04-29 16:53 | 38.87893 | -1.31451 | 34912 ft | 414 kts | 247° |
| 2026-04-29 16:53 | 38.85538 | -1.38193 | 34904 ft | 414 kts | 247° |
| 2026-04-29 16:54 | 38.83196 | -1.44901 | 34913 ft | 414 kts | 246° |
| 2026-04-29 16:54 | 38.80835 | -1.51644 | 34910 ft | 415 kts | 246° |
| 2026-04-29 16:55 | 38.78461 | -1.58384 | 34906 ft | 415 kts | 246° |
| 2026-04-29 16:55 | 38.76076 | -1.65119 | 34907 ft | 415 kts | 246° |
| 2026-04-29 16:56 | 38.73690 | -1.71849 | 34906 ft | 415 kts | 246° |
| 2026-04-29 16:56 | 38.70999 | -1.78383 | 34906 ft | 416 kts | 234° |
| 2026-04-29 16:57 | 38.67446 | -1.84230 | 34905 ft | 416 kts | 233° |
| 2026-04-29 16:57 | 38.63874 | -1.90073 | 34909 ft | 416 kts | 233° |
| 2026-04-29 16:58 | 38.60311 | -1.95909 | 34915 ft | 416 kts | 233° |
| 2026-04-29 16:58 | 38.56744 | -2.01728 | 34919 ft | 416 kts | 233° |
| 2026-04-29 16:59 | 38.53174 | -2.07540 | 34922 ft | 416 kts | 233° |
| 2026-04-29 16:59 | 38.49602 | -2.13355 | 34928 ft | 416 kts | 232° |
| 2026-04-29 17:00 | 38.46037 | -2.19157 | 34924 ft | 415 kts | 232° |
| 2026-04-29 17:00 | 38.42471 | -2.24937 | 34929 ft | 416 kts | 232° |
| 2026-04-29 17:01 | 38.38913 | -2.30685 | 34945 ft | 416 kts | 232° |
| 2026-04-29 17:01 | 38.35247 | -2.36388 | 34949 ft | 416 kts | 227° |
| 2026-04-29 17:02 | 38.31262 | -2.41745 | 34945 ft | 417 kts | 227° |
| 2026-04-29 17:02 | 38.27280 | -2.47093 | 34941 ft | 417 kts | 227° |
| 2026-04-29 17:03 | 38.23294 | -2.52446 | 34943 ft | 417 kts | 227° |
| 2026-04-29 17:03 | 38.19304 | -2.57799 | 34942 ft | 417 kts | 227° |
| 2026-04-29 17:04 | 38.15311 | -2.63137 | 34936 ft | 417 kts | 226° |
| 2026-04-29 17:04 | 38.11303 | -2.68468 | 34933 ft | 417 kts | 226° |
| 2026-04-29 17:05 | 38.07293 | -2.73800 | 34929 ft | 417 kts | 226° |
| 2026-04-29 17:05 | 38.03284 | -2.79137 | 34926 ft | 418 kts | 226° |
| 2026-04-29 17:06 | 37.99295 | -2.84437 | 34929 ft | 418 kts | 226° |
| 2026-04-29 17:06 | 37.95276 | -2.89753 | 34925 ft | 418 kts | 226° |
| 2026-04-29 17:07 | 37.91907 | -2.94207 | 34924 ft | 418 kts | 226° |
| 2026-04-29 17:07 | 37.87890 | -2.99512 | 34923 ft | 417 kts | 226° |
| 2026-04-29 17:08 | 37.83872 | -3.04808 | 34924 ft | 417 kts | 226° |
| 2026-04-29 17:08 | 37.79849 | -3.10102 | 34919 ft | 417 kts | 226° |
| 2026-04-29 17:09 | 37.75962 | -3.15525 | 34914 ft | 416 kts | 235° |
| 2026-04-29 17:09 | 37.73527 | -3.22113 | 34915 ft | 417 kts | 255° |
| 2026-04-29 17:10 | 37.72870 | -3.29343 | 34913 ft | 418 kts | 265° |
| 2026-04-29 17:10 | 37.72474 | -3.36665 | 34912 ft | 418 kts | 264° |
| 2026-04-29 17:11 | 37.72061 | -3.44001 | 34911 ft | 418 kts | 264° |
| 2026-04-29 17:11 | 37.71645 | -3.51329 | 34917 ft | 418 kts | 264° |
| 2026-04-29 17:12 | 37.71224 | -3.58652 | 34922 ft | 418 kts | 264° |
| 2026-04-29 17:12 | 37.70881 | -3.64733 | 34914 ft | 418 kts | 264° |
| 2026-04-29 17:13 | 37.70601 | -3.69677 | 33915 ft | 426 kts | 264° |
| 2026-04-29 17:13 | 37.70388 | -3.73383 | 33437 ft | 420 kts | 264° |
| 2026-04-29 17:13 | 37.70173 | -3.77041 | 32928 ft | 415 kts | 264° |
| 2026-04-29 17:13 | 37.69958 | -3.80653 | 32425 ft | 411 kts | 264° |
| 2026-04-29 17:14 | 37.69744 | -3.84233 | 31938 ft | 407 kts | 264° |
| 2026-04-29 17:14 | 37.69533 | -3.87779 | 31451 ft | 403 kts | 264° |
| 2026-04-29 17:14 | 37.69324 | -3.91294 | 30969 ft | 400 kts | 264° |
| 2026-04-29 17:14 | 37.69116 | -3.94743 | 30503 ft | 397 kts | 264° |
| 2026-04-29 17:15 | 37.68906 | -3.98203 | 30046 ft | 394 kts | 264° |
| 2026-04-29 17:15 | 37.68696 | -4.01646 | 29539 ft | 391 kts | 264° |
| 2026-04-29 17:15 | 37.68489 | -4.05044 | 29093 ft | 386 kts | 264° |
| 2026-04-29 17:15 | 37.68287 | -4.08407 | 28664 ft | 382 kts | 264° |
| 2026-04-29 17:16 | 37.68088 | -4.11726 | 28239 ft | 377 kts | 264° |
| 2026-04-29 17:16 | 37.67888 | -4.15010 | 27817 ft | 373 kts | 264° |
| 2026-04-29 17:16 | 37.67688 | -4.18257 | 27403 ft | 369 kts | 264° |
| 2026-04-29 17:16 | 37.67487 | -4.21476 | 26992 ft | 366 kts | 263° |
| 2026-04-29 17:17 | 37.67287 | -4.24660 | 26581 ft | 362 kts | 263° |
| 2026-04-29 17:17 | 37.67088 | -4.27812 | 26172 ft | 359 kts | 263° |
| 2026-04-29 17:17 | 37.66891 | -4.30941 | 25763 ft | 356 kts | 263° |
| 2026-04-29 17:17 | 37.66695 | -4.34043 | 25340 ft | 353 kts | 263° |
| 2026-04-29 17:18 | 37.66500 | -4.37121 | 24925 ft | 351 kts | 263° |
| 2026-04-29 17:18 | 37.66304 | -4.40186 | 24491 ft | 349 kts | 263° |
| 2026-04-29 17:18 | 37.66108 | -4.43234 | 24053 ft | 347 kts | 263° |
| 2026-04-29 17:18 | 37.65914 | -4.46265 | 23620 ft | 346 kts | 263° |
| 2026-04-29 17:19 | 37.65721 | -4.49245 | 23143 ft | 345 kts | 263° |
| 2026-04-29 17:19 | 37.65527 | -4.52250 | 22702 ft | 342 kts | 263° |
| 2026-04-29 17:19 | 37.65330 | -4.55266 | 22275 ft | 339 kts | 263° |
| 2026-04-29 17:19 | 37.65136 | -4.58185 | 21857 ft | 337 kts | 263° |
| 2026-04-29 17:20 | 37.64942 | -4.61123 | 21442 ft | 335 kts | 263° |
| 2026-04-29 17:20 | 37.64753 | -4.64039 | 21030 ft | 333 kts | 263° |
| 2026-04-29 17:20 | 37.64565 | -4.66939 | 20620 ft | 331 kts | 263° |
| 2026-04-29 17:20 | 37.64374 | -4.69820 | 20219 ft | 329 kts | 263° |
| 2026-04-29 17:21 | 37.64180 | -4.72693 | 19813 ft | 328 kts | 263° |
| 2026-04-29 17:21 | 37.63987 | -4.75557 | 19411 ft | 327 kts | 263° |
| 2026-04-29 17:21 | 37.63795 | -4.78411 | 19014 ft | 326 kts | 263° |
| 2026-04-29 17:21 | 37.63602 | -4.81261 | 18618 ft | 325 kts | 263° |
| 2026-04-29 17:22 | 37.63407 | -4.84112 | 18217 ft | 325 kts | 262° |
| 2026-04-29 17:22 | 37.63214 | -4.86946 | 17776 ft | 324 kts | 262° |
| 2026-04-29 17:22 | 37.63022 | -4.89769 | 17389 ft | 322 kts | 262° |
| 2026-04-29 17:22 | 37.62830 | -4.92572 | 16994 ft | 320 kts | 262° |
| 2026-04-29 17:23 | 37.62640 | -4.95359 | 16622 ft | 318 kts | 262° |
| 2026-04-29 17:23 | 37.62452 | -4.98126 | 16245 ft | 316 kts | 262° |
| 2026-04-29 17:23 | 37.62262 | -5.00876 | 15869 ft | 314 kts | 262° |
| 2026-04-29 17:23 | 37.62076 | -5.03574 | 15508 ft | 312 kts | 262° |
| 2026-04-29 17:24 | 37.61886 | -5.06300 | 15139 ft | 311 kts | 262° |
| 2026-04-29 17:24 | 37.61696 | -5.09010 | 14774 ft | 310 kts | 262° |
| 2026-04-29 17:24 | 37.61504 | -5.11712 | 14407 ft | 309 kts | 262° |
| 2026-04-29 17:24 | 37.61314 | -5.14410 | 14041 ft | 308 kts | 262° |
| 2026-04-29 17:25 | 37.61126 | -5.17097 | 13669 ft | 307 kts | 262° |
| 2026-04-29 17:25 | 37.60940 | -5.19770 | 13275 ft | 305 kts | 262° |
| 2026-04-29 17:25 | 37.60754 | -5.22428 | 12910 ft | 303 kts | 262° |
| 2026-04-29 17:25 | 37.60653 | -5.25072 | 12502 ft | 304 kts | 271° |
| 2026-04-29 17:26 | 37.61019 | -5.27707 | 12081 ft | 306 kts | 280° |
| 2026-04-29 17:26 | 37.61505 | -5.30310 | 11651 ft | 302 kts | 280° |
| 2026-04-29 17:26 | 37.61979 | -5.32854 | 11291 ft | 292 kts | 280° |
| 2026-04-29 17:26 | 37.62439 | -5.35322 | 10830 ft | 284 kts | 280° |
| 2026-04-29 17:27 | 37.62882 | -5.37707 | 10424 ft | 274 kts | 279° |
| 2026-04-29 17:27 | 37.63308 | -5.40019 | 10032 ft | 269 kts | 279° |
| 2026-04-29 17:27 | 37.63728 | -5.42310 | 9617 ft | 267 kts | 279° |
| 2026-04-29 17:27 | 37.64142 | -5.44562 | 9201 ft | 259 kts | 279° |
| 2026-04-29 17:28 | 37.64545 | -5.46770 | 8815 ft | 258 kts | 278° |
| 2026-04-29 17:28 | 37.64580 | -5.48958 | 8436 ft | 251 kts | 255° |
| 2026-04-29 17:28 | 37.63890 | -5.50937 | 8051 ft | 246 kts | 231° |
| 2026-04-29 17:28 | 37.62625 | -5.52354 | 7669 ft | 244 kts | 208° |
| 2026-04-29 17:29 | 37.61032 | -5.53086 | 7293 ft | 244 kts | 197° |
| 2026-04-29 17:29 | 37.59381 | -5.53696 | 6899 ft | 244 kts | 197° |
| 2026-04-29 17:29 | 37.57748 | -5.54300 | 6503 ft | 244 kts | 197° |
| 2026-04-29 17:29 | 37.56666 | -5.54701 | 6241 ft | 245 kts | 197° |
| 2026-04-29 17:30 | 37.54506 | -5.55501 | 5737 ft | 243 kts | 196° |
| 2026-04-29 17:30 | 37.52883 | -5.56104 | 5336 ft | 244 kts | 196° |
| 2026-04-29 17:30 | 37.51253 | -5.56712 | 4927 ft | 244 kts | 196° |
| 2026-04-29 17:30 | 37.49626 | -5.57320 | 4507 ft | 243 kts | 197° |
| 2026-04-29 17:31 | 37.48028 | -5.57918 | 4191 ft | 231 kts | 196° |
| 2026-04-29 17:31 | 37.46545 | -5.58471 | 4003 ft | 215 kts | 197° |
| 2026-04-29 17:31 | 37.45126 | -5.59000 | 3868 ft | 211 kts | 197° |
| 2026-04-29 17:31 | 37.43772 | -5.59545 | 3746 ft | 195 kts | 206° |
| 2026-04-29 17:32 | 37.42704 | -5.60516 | 3678 ft | 187 kts | 227° |
| 2026-04-29 17:32 | 37.42051 | -5.61855 | 3586 ft | 175 kts | 246° |
| 2026-04-29 17:32 | 37.41844 | -5.63321 | 3491 ft | 167 kts | 267° |
| 2026-04-29 17:32 | 37.41847 | -5.64727 | 3409 ft | 154 kts | 264° |
| 2026-04-29 17:33 | 37.41842 | -5.66088 | 3360 ft | 164 kts | 265° |
| 2026-04-29 17:33 | 37.41840 | -5.67548 | 3178 ft | 168 kts | 265° |
| 2026-04-29 17:33 | 37.41839 | -5.69026 | 2956 ft | 167 kts | 265° |
| 2026-04-29 17:33 | 37.41840 | -5.70437 | 2733 ft | 155 kts | 266° |
| 2026-04-29 17:34 | 37.41842 | -5.71750 | 2591 ft | 144 kts | 266° |
| 2026-04-29 17:34 | 37.41843 | -5.73015 | 2367 ft | 145 kts | 264° |
| 2026-04-29 17:34 | 37.41839 | -5.74264 | 2129 ft | 140 kts | 265° |
| 2026-04-29 17:34 | 37.41838 | -5.75481 | 1913 ft | 139 kts | 266° |
| 2026-04-29 17:35 | 37.41831 | -5.77511 | 1603 ft | 138 kts | 265° |
| 2026-04-29 17:35 | 37.41838 | -5.79110 | 1413 ft | 138 kts | 266° |
| 2026-04-29 17:35 | 37.41818 | -5.80326 | 1251 ft | 140 kts | 265° |
| 2026-04-29 17:36 | 37.41814 | -5.81535 | 1084 ft | 137 kts | 266° |
| 2026-04-29 17:36 | 37.41814 | -5.82734 | 934 ft | 135 kts | 266° |
| 2026-04-29 17:36 | 37.41815 | -5.83918 | 735 ft | 137 kts | 265° |
| 2026-04-29 17:36 | 37.41811 | -5.85110 | 550 ft | 135 kts | 266° |
| 2026-04-29 17:37 | 37.41802 | -5.86282 | 346 ft | 134 kts | 267° |
| 2026-04-29 17:37 | 37.41803 | -5.87455 | 152 ft | 133 kts | 264° |
| 2026-04-29 17:37 | 37.41794 | -5.88517 | 106 ft | 99 kts | 270° |
| 2026-04-29 17:37 | 37.41794 | -5.89059 | 102 ft | 26 kts | 271° |
| 2026-04-29 17:38 | 37.41828 | -5.89222 | 100 ft | 17 kts | 301° |
| 2026-04-29 17:38 | 37.41894 | -5.89294 | 99 ft | 12 kts | 330° |
| 2026-04-29 17:38 | 37.41965 | -5.89344 | 100 ft | 11 kts | 330° |
| 2026-04-29 17:38 | 37.42018 | -5.89403 | 99 ft | 10 kts | 314° |
| 2026-04-29 17:39 | 37.42066 | -5.89464 | 98 ft | 9 kts | 314° |
| 2026-04-29 17:39 | 37.42107 | -5.89519 | 97 ft | 9 kts | 314° |
| 2026-04-29 17:39 | 37.42149 | -5.89573 | 96 ft | 9 kts | 314° |
| 2026-04-29 17:39 | 37.42194 | -5.89630 | 95 ft | 9 kts | 314° |
| 2026-04-29 17:40 | 37.42238 | -5.89688 | 94 ft | 9 kts | 314° |
| 2026-04-29 17:40 | 37.42261 | -5.89750 | 95 ft | 8 kts | 258° |
| 2026-04-29 17:40 | 37.42280 | -5.89814 | 94 ft | 8 kts | 313° |
| 2026-04-29 17:40 | 37.42300 | -5.89839 | 94 ft | 0 kts | 315° |